Nearby METAR Reports

 

KSEE - San Diego/Santee, California, USA
Distance from station: E 4mi, 6km
Updated: Sat, 24-Jun-2017 12:47pm PDT
Clear
Clear
 Wind from calm
Wind: Calm
Temperature: 82°F , 28°C
Heat Index: 82°F , 28°C
Dew Point: 61°F , 16°C
Humidity: 48%
Barometer: 29.89 inHg , 1012.2 hPa
Clouds: Clear
Visibility: 10 miles , 16 km
2017/06/24 19:47 KSEE 241947Z 00000KT 10SM SKC 28/16 A2989
KMYF - San Diego/Mntgmy, California, USA
Distance from station: W 6mi, 10km
Updated: Sat, 24-Jun-2017 12:53pm PDT
Clear
Clear
 Wind from WSW
Wind: WSW 10 mph , 17 km/h
Temperature: 77°F , 25°C
Dew Point: 61°F , 16°C
Humidity: 57%
Barometer: 29.91 inHg , 1012.9 hPa
Clouds: Clear
Visibility: 10 miles , 16 km
2017/06/24 19:53 KMYF 241953Z 24009KT 10SM CLR 25/16 A2991 RMK AO2 SLP123 T02500156
 
KNKX - Miramar Nas/San, California, USA
Distance from station: WNW 7mi, 11km
Updated: Sat, 24-Jun-2017 12:55pm PDT
Few Clouds
Few Clouds
 Wind from WNW
Wind: WNW 8 mph , 13 km/h
Temperature: 77°F , 25°C
Dew Point: 59°F , 15°C
Humidity: 54%
Barometer: 29.91 inHg , 1012.9 hPa
Clouds: Few Clouds
Visibility: 10 miles , 16 km
Cloud details: Few Clouds 1500 ft
2017/06/24 19:55 KNKX 241955Z 30007KT 10SM FEW015 25/15 A2991 RMK AO2 SLP121 T02500150 $
KSAN - San Diego, California, USA
Distance from station: WSW 11mi, 17km
Updated: Sat, 24-Jun-2017 12:51pm PDT
Partly cloudy
Partly cloudy
 Wind from W
Wind: W 9 mph , 15 km/h
Temperature: 73°F , 23°C
Dew Point: 61°F , 16°C
Humidity: 65%
Barometer: 29.93 inHg , 1013.5 hPa
Clouds: Partly cloudy
Visibility: 10 miles , 16 km
Cloud details: Partly cloudy 1300 ft
Partly cloudy 20000 ft
2017/06/24 19:51 KSAN 241951Z 28008KT 10SM SCT013 SCT200 23/16 A2993 RMK AO2 SLP134 T02280161
 
KNZY - North Island Nas, California, USA
Distance from station: SW 13mi, 22km
Updated: Sat, 24-Jun-2017 12:52pm PDT
Partly cloudy
Partly cloudy
 Wind from W
Wind: W 12 mph , 19 km/h
Temperature: 72°F , 22°C
Dew Point: 61°F , 16°C
Humidity: 69%
Barometer: 29.91 inHg , 1012.9 hPa
Clouds: Partly cloudy
Visibility: 10 miles , 16 km
Cloud details: Partly cloudy 1200 ft
2017/06/24 19:52 KNZY 241952Z 27010KT 10SM SCT012 22/16 A2991 RMK AO2 SLP128 T02170156 $
KRNM - Ramona, California, USA
Distance from station: NNE 16mi, 26km
Updated: Sat, 24-Jun-2017 12:53pm PDT
Clear
Clear
 Wind from WNW
Wind: WNW 10 mph , 17 km/h
Temperature: 88°F , 31°C
Heat Index: 88°F , 31°C
Dew Point: 61°F , 16°C
Humidity: 40%
Barometer: 29.91 inHg , 1012.9 hPa
Clouds: Clear
Visibility: 10 miles , 16 km
2017/06/24 19:53 KRNM 241953Z 30009KT 10SM CLR 31/16 A2991 RMK AO2 SLP114 T03060156 $
 
KSDM - San Diego/Brown, California, USA
Distance from station: S 16mi, 26km
Updated: Sat, 24-Jun-2017 12:53pm PDT
Clear
Clear
 Wind from WNW
Wind: WNW 12 mph , 19 km/h
Temperature: 73°F , 23°C
Dew Point: 61°F , 16°C
Humidity: 65%
Barometer: 29.91 inHg , 1012.9 hPa
Clouds: Clear
Visibility: 10 miles , 16 km
2017/06/24 19:53 KSDM 241953Z 29010KT 10SM CLR 23/16 A2991 RMK AO2 SLP124 T02330161
KNRS - Imperial Beach, California, USA
Distance from station: SSW 18mi, 29km
Updated: Sat, 24-Jun-2017 12:56pm PDT
Clear
Clear
 
Barometer: 29.93 inHg , 1013.5 hPa
Clouds: Clear
Visibility: 10 miles , 16 km
2017/06/24 19:56 KNRS 241956Z AUTO 10SM CLR A2993 RMK AO2 SLP136 $
 
MMTJ - Tijuana Intl Arp, Mexico
Distance from station: S 20mi, 32km
Updated: Sat, 24-Jun-2017 12:46pm PDT
Clear
Clear
 Wind from W
Wind: W 8 mph , 13 km/h
Temperature: 73°F , 23°C
Dew Point: 61°F , 16°C
Humidity: 65%
Barometer: 29.93 inHg , 1013.5 hPa
Clouds: Clear
Visibility: 6 miles , 10 km
2017/06/24 19:46 MMTJ 241946Z 27007KT 6SM SKC 23/16 A2993 RMK HZY ISOL SC
KCRQ - Carlsbad, California, USA
Distance from station: NW 26mi, 43km
Updated: Sat, 24-Jun-2017 12:53pm PDT
Clear
Clear
 Wind from varies
Wind: varies 7 mph , 11 km/h
Temperature: 70°F , 21°C
Dew Point: 63°F , 17°C
Humidity: 78%
Barometer: 29.90 inHg , 1012.5 hPa
Clouds: Clear
Visibility: 10 miles , 16 km
2017/06/24 19:53 KCRQ 241953Z AUTO VRB06KT 10SM CLR 21/17 A2990 RMK AO2 SLP123 T02060167
 
KOKB - Oceanside, California, USA
Distance from station: NW 33mi, 54km
Updated: Sat, 24-Jun-2017 12:52pm PDT
Clear
Clear
 Wind from WSW
Wind: WSW 9 mph , 15 km/h, Gust: 16 mph , 26 km/h
Temperature: 72°F , 22°C
Dew Point: 61°F , 16°C
Humidity: 69%
Barometer: 29.90 inHg , 1012.5 hPa
Clouds: Clear
Visibility: 10 miles , 16 km
2017/06/24 19:52 KOKB 241952Z AUTO 24008G14KT 10SM CLR 22/16 A2990 RMK AO2 PK WND 22026/1908 SLP123 T02170161
KCZZ - Campo, California, USA
Distance from station: ESE 35mi, 56km
Updated: Sat, 24-Jun-2017 12:52pm PDT

 Wind from SW
Wind: SW 18 mph , 30 km/h
Temperature: 91°F , 33°C
Dew Point: 57°F , 14°C
Humidity: 32%
Barometer: 29.91 inHg , 1012.9 hPa
2017/06/24 19:52 KCZZ 241952Z AUTO 23016KT 33/14 A2991 RMK AO1 SLP089 T03330144
 
KNFG - Camp Pendleton, California, USA
Distance from station: NNW 37mi, 59km
Updated: Sat, 24-Jun-2017 12:55pm PDT
Haze, Clear
Haze, Clear
 Wind from SSW
Wind: SSW 8 mph , 13 km/h
Temperature: 72°F , 22°C
Dew Point: 63°F , 17°C
Humidity: 73%
Barometer: 29.89 inHg , 1012.2 hPa
Summary: Haze
Clouds: Clear
Visibility: 6 miles , 10 km
2017/06/24 19:55 KNFG 241955Z AUTO 20007KT 6SM HZ CLR 22/17 A2989 RMK AO2 SLP121 T02220167
KRIV - Riverside/March, California, USA
Distance from station: N 74mi, 119km
Updated: Sat, 24-Jun-2017 12:58pm PDT
Few Clouds
Few Clouds
 Wind from W
Wind: W 10 mph , 17 km/h
Temperature: 91°F , 33°C
Dew Point: 61°F , 16°C
Humidity: 36%
Barometer: 29.89 inHg , 1012.2 hPa
Clouds: Few Clouds
Visibility: 10 miles , 16 km
Cloud details: Few Clouds 19000 ft
2017/06/24 19:58 KRIV 241958Z AUTO 28009KT 10SM FEW190 33/16 A2989 RMK AO2 SLP107 T03270158
 
KTRM - Thermal/Palm Spg, California, USA
Distance from station: NE 75mi, 121km
Updated: Sat, 24-Jun-2017 12:52pm PDT
Clear
Clear
 Wind from varies
Wind: varies 7 mph , 11 km/h
Temperature: 111°F , 44°C
Dew Point: 59°F , 15°C
Humidity: 18%
Barometer: 29.64 inHg , 1003.7 hPa
Clouds: Clear
Visibility: 10 miles , 16 km
2017/06/24 19:52 KTRM 241952Z AUTO VRB06KT 10SM CLR 44/15 A2964 RMK AO2 SLP041 T04390150
KPSP - Palm Springs, California, USA
Distance from station: NNE 76mi, 122km
Updated: Sat, 24-Jun-2017 12:53pm PDT
Clear
Clear
 Wind from S
Wind: S 6 mph , 9 km/h
Temperature: 115°F , 46°C
Dew Point: 39°F , 4°C
Humidity: 8%
Barometer: 29.70 inHg , 1005.8 hPa
Clouds: Clear
Visibility: 10 miles , 16 km
2017/06/24 19:53 KPSP 241953Z 18005KT 10SM CLR 46/04 A2970 RMK AO2 SLP052 T04610044
 
KSNA - Costa Mesa, California, USA
Distance from station: NW 76mi, 123km
Updated: Sat, 24-Jun-2017 12:53pm PDT
Partly cloudy
Partly cloudy
 Wind from SW
Wind: SW 12 mph , 19 km/h
Temperature: 72°F , 22°C
Dew Point: 61°F , 16°C
Humidity: 69%
Barometer: 29.90 inHg , 1012.5 hPa
Clouds: Partly cloudy
Visibility: 10 miles , 16 km
Cloud details: Few Clouds 1300 ft
Partly cloudy 18000 ft
Partly cloudy 22000 ft
2017/06/24 19:53 KSNA 241953Z 22010KT 10SM FEW013 SCT180 SCT220 22/16 A2990 RMK AO2 SLP124 VIRGA OHD ACC OHD T02220156
KNJK - El Centro Naf, California, USA
Distance from station: E 79mi, 127km
Updated: Sat, 24-Jun-2017 12:56pm PDT
Clear
Clear
 Wind from SSW
Wind: SSW 5 mph , 7 km/h
Temperature: 108°F , 42°C
Dew Point: 55°F , 13°C
Humidity: 18%
Barometer: 29.68 inHg , 1005.1 hPa
Clouds: Clear
Visibility: 10 miles , 16 km
2017/06/24 19:56 KNJK 241956Z AUTO 21004KT 10SM CLR 42/13 A2968 RMK AO2 SLP067 T04220133 $
 
KAJO - Corona Muni, California, USA
Distance from station: NNW 82mi, 132km
Updated: Sat, 24-Jun-2017 12:56pm PDT
Clear
Clear
 Wind from W
Wind: W 10 mph , 17 km/h
Temperature: 84°F , 29°C
Heat Index: 85°F , 29°C
Dew Point: 64°F , 18°C
Humidity: 51%
Barometer: 29.87 inHg , 1011.5 hPa
Clouds: Clear
Visibility: 10 miles , 16 km
2017/06/24 19:56 KAJO 241956Z AUTO 28009KT 10SM CLR 29/18 A2987 RMK AO2 SLP120 T02940178